Time;durP1;ratioP1;P1;durP2;ratioP2;P2;SDS_P1;SDS_P2;PMS_P1;PMS_P2;Temp;Humidity;BMP_temperature;BMP_pressure;BME280_temperature;BME280_humidity;BME280_pressure;Samples;Min_cycle;Max_cycle;Signal;HPM_P1;HPM_P2
2022/10/12 00:00:18;;;;;;;;;;;7.00;82.10;;;;;;5006354;28;19921;-82
2022/10/12 00:02:43;;;;;;;;;;;6.90;82.70;;;;;;4992886;28;19921;-82
2022/10/12 00:05:09;;;;;;;;;;;6.90;82.30;;;;;;4992132;28;19914;-81
2022/10/12 00:07:34;;;;;;;;;;;6.90;82.30;;;;;;4992739;28;19929;-82
2022/10/12 00:10:00;;;;;;;;;;;6.90;82.40;;;;;;4990940;28;19917;-82
2022/10/12 00:12:25;;;;;;;;;;;7.00;82.00;;;;;;4989522;28;20084;-82
2022/10/12 00:14:50;;;;;;;;;;;7.00;81.70;;;;;;4999906;28;19976;-81
2022/10/12 00:17:16;;;;;;;;;;;6.80;81.70;;;;;;4990871;28;20039;-82
2022/10/12 00:19:41;;;;;;;;;;;6.70;81.90;;;;;;4990780;28;19917;-82
2022/10/12 00:22:07;;;;;;;;;;;6.80;82.10;;;;;;5005970;28;19920;-82
2022/10/12 00:24:32;;;;;;;;;;;6.70;82.00;;;;;;5007129;28;20017;-82
2022/10/12 00:26:58;;;;;;;;;;;6.70;81.90;;;;;;5012451;22;19961;-77
2022/10/12 00:29:23;;;;;;;;;;;6.60;82.00;;;;;;5023856;28;19913;-77
2022/10/12 00:31:49;;;;;;;;;;;6.70;82.00;;;;;;5010805;28;20294;-77
2022/10/12 00:34:14;;;;;;;;;;;6.70;82.00;;;;;;5015483;28;19936;-76
2022/10/12 00:36:40;;;;;;;;;;;6.70;82.20;;;;;;5013056;28;19916;-77
2022/10/12 00:39:07;;;;;;;;;;;6.70;82.30;;;;;;5016752;28;19917;-77
2022/10/12 00:41:34;;;;;;;;;;;6.90;82.10;;;;;;5021168;28;19913;-77
2022/10/12 00:44:00;;;;;;;;;;;6.70;82.20;;;;;;5013737;28;19918;-77
2022/10/12 00:46:29;;;;;;;;;;;6.80;82.00;;;;;;5021641;28;19917;-77
2022/10/12 00:49:02;;;;;;;;;;;6.60;82.50;;;;;;5021708;28;20195;-79
2022/10/12 00:51:28;;;;;;;;;;;6.80;82.40;;;;;;5027780;28;20004;-76
2022/10/12 00:53:56;;;;;;;;;;;6.80;82.20;;;;;;5025968;28;19957;-77
2022/10/12 00:56:24;;;;;;;;;;;6.70;82.00;;;;;;5013826;28;20432;-77
2022/10/12 00:58:50;;;;;;;;;;;6.70;82.10;;;;;;5020078;28;19945;-77
2022/10/12 01:01:16;;;;;;;;;;;6.70;82.30;;;;;;5016175;28;20440;-77
2022/10/12 01:03:41;;;;;;;;;;;6.60;82.30;;;;;;5019489;28;19913;-77
2022/10/12 01:06:07;;;;;;;;;;;6.60;82.20;;;;;;5021646;28;19996;-77
2022/10/12 01:08:33;;;;;;;;;;;6.60;82.00;;;;;;5014163;28;19917;-77
2022/10/12 01:10:59;;;;;;;;;;;6.50;82.40;;;;;;5014151;28;20292;-77
2022/10/12 01:13:25;;;;;;;;;;;6.60;82.30;;;;;;5013541;28;20396;-77
2022/10/12 01:15:53;;;;;;;;;;;6.40;82.40;;;;;;5020787;28;20377;-77
2022/10/12 01:18:41;;;;;;;;;;;6.30;82.40;;;;;;5020759;28;19987;-77
2022/10/12 01:21:16;;;;;;;;;;;6.30;82.20;;;;;;5027434;28;20333;-77
2022/10/12 01:23:51;;;;;;;;;;;6.30;82.60;;;;;;5013359;28;19914;-77
2022/10/12 01:26:39;;;;;;;;;;;6.20;82.30;;;;;;5017530;28;20570;-77
2022/10/12 01:29:24;;;;;;;;;;;6.20;82.40;;;;;;5010209;28;19913;-77
2022/10/12 01:32:03;;;;;;;;;;;6.20;82.80;;;;;;5038981;28;19917;-78
2022/10/12 01:34:51;;;;;;;;;;;6.10;82.90;;;;;;5025280;28;19920;-77
2022/10/12 01:37:17;;;;;;;;;;;6.20;83.00;;;;;;5020517;28;19913;-77
2022/10/12 01:39:45;;;;;;;;;;;6.20;82.50;;;;;;5020000;28;20616;-77
2022/10/12 01:42:23;;;;;;;;;;;6.20;82.20;;;;;;5012935;28;19964;-77
2022/10/12 01:44:48;;;;;;;;;;;6.10;82.30;;;;;;5015971;28;19922;-77
2022/10/12 01:47:14;;;;;;;;;;;6.10;82.20;;;;;;5020808;28;19913;-77
2022/10/12 01:49:39;;;;;;;;;;;6.00;82.80;;;;;;5015154;28;19914;-78
2022/10/12 01:52:22;;;;;;;;;;;6.10;83.00;;;;;;5020130;28;19922;-78
2022/10/12 01:54:55;;;;;;;;;;;6.20;82.90;;;;;;5035431;28;19921;-78
2022/10/12 01:57:27;;;;;;;;;;;6.10;82.60;;;;;;5026631;28;19913;-77
2022/10/12 02:00:04;;;;;;;;;;;6.10;82.70;;;;;;5026035;28;19914;-78
2022/10/12 02:02:36;;;;;;;;;;;6.10;82.50;;;;;;5026151;28;19980;-78
2022/10/12 02:05:08;;;;;;;;;;;6.00;82.40;;;;;;5024451;28;19917;-78
2022/10/12 02:07:42;;;;;;;;;;;6.10;82.50;;;;;;5028309;28;19913;-78
2022/10/12 02:10:12;;;;;;;;;;;6.00;82.50;;;;;;5030607;28;19913;-78
2022/10/12 02:12:40;;;;;;;;;;;6.00;82.50;;;;;;5030646;28;19921;-78
2022/10/12 02:15:07;;;;;;;;;;;6.00;82.50;;;;;;5022695;28;19917;-78
2022/10/12 02:17:33;;;;;;;;;;;5.90;82.60;;;;;;5028685;28;19917;-77
2022/10/12 02:19:59;;;;;;;;;;;6.00;82.70;;;;;;5026296;28;20009;-77
2022/10/12 02:22:27;;;;;;;;;;;5.90;82.80;;;;;;5012296;28;19937;-77
2022/10/12 02:24:55;;;;;;;;;;;5.90;82.40;;;;;;5025607;28;19913;-77
2022/10/12 02:27:21;;;;;;;;;;;5.90;82.70;;;;;;5015378;28;20412;-77
2022/10/12 02:29:46;;;;;;;;;;;5.80;82.80;;;;;;5027207;28;19913;-77
2022/10/12 02:32:20;;;;;;;;;;;5.90;82.80;;;;;;5032570;28;19921;-78
2022/10/12 02:34:54;;;;;;;;;;;5.90;82.80;;;;;;5034536;28;20431;-77
2022/10/12 02:37:38;;;;;;;;;;;5.90;82.70;;;;;;5022477;28;20423;-77
2022/10/12 02:40:08;;;;;;;;;;;5.90;83.10;;;;;;5032134;28;19925;-78
2022/10/12 02:42:37;;;;;;;;;;;6.00;82.70;;;;;;5022394;28;19988;-77
2022/10/12 02:45:05;;;;;;;;;;;6.00;82.50;;;;;;5031700;28;19913;-78
2022/10/12 02:47:31;;;;;;;;;;;6.00;82.30;;;;;;5021705;28;19917;-77
2022/10/12 02:49:58;;;;;;;;;;;5.90;82.50;;;;;;5024534;28;19921;-78
2022/10/12 02:52:24;;;;;;;;;;;5.90;82.50;;;;;;5028298;28;19917;-78
2022/10/12 02:54:50;;;;;;;;;;;5.90;82.40;;;;;;5028125;28;19952;-78
2022/10/12 02:57:15;;;;;;;;;;;6.00;82.10;;;;;;5025723;28;19960;-78
2022/10/12 02:59:41;;;;;;;;;;;5.90;82.00;;;;;;5018278;28;19914;-78
2022/10/12 03:02:08;;;;;;;;;;;5.80;83.00;;;;;;5015063;28;19914;-77
2022/10/12 03:04:34;;;;;;;;;;;5.90;82.10;;;;;;5016143;28;20447;-77
2022/10/12 03:06:59;;;;;;;;;;;5.90;82.00;;;;;;5029601;28;20063;-77
2022/10/12 03:09:25;;;;;;;;;;;5.90;81.30;;;;;;5020194;28;20495;-77
2022/10/12 03:11:50;;;;;;;;;;;5.70;81.80;;;;;;5041373;28;19917;-77
2022/10/12 03:14:16;;;;;;;;;;;5.70;82.30;;;;;;5023760;28;19949;-77
2022/10/12 03:16:42;;;;;;;;;;;5.90;82.20;;;;;;5043857;28;19920;-78
2022/10/12 03:19:08;;;;;;;;;;;6.00;82.00;;;;;;5034208;28;20305;-78
2022/10/12 03:21:34;;;;;;;;;;;5.80;82.40;;;;;;5022415;28;19924;-77
2022/10/12 03:23:59;;;;;;;;;;;5.80;82.60;;;;;;5025460;28;20440;-78
2022/10/12 03:26:24;;;;;;;;;;;5.60;82.70;;;;;;5023669;28;19914;-78
2022/10/12 03:28:50;;;;;;;;;;;5.60;82.90;;;;;;5027489;28;19920;-79
2022/10/12 03:31:16;;;;;;;;;;;5.70;82.90;;;;;;5027088;28;19917;-78
2022/10/12 03:33:41;;;;;;;;;;;6.00;81.90;;;;;;5026154;28;19913;-78
2022/10/12 03:36:07;;;;;;;;;;;6.10;81.10;;;;;;5032246;28;19909;-79
2022/10/12 03:38:32;;;;;;;;;;;6.00;81.20;;;;;;5023968;28;20412;-78
2022/10/12 03:40:58;;;;;;;;;;;5.70;81.70;;;;;;5021976;28;19997;-77
2022/10/12 03:43:23;;;;;;;;;;;5.60;82.40;;;;;;5026608;28;19936;-78
2022/10/12 03:45:49;;;;;;;;;;;5.50;83.00;;;;;;5028201;28;20002;-78
2022/10/12 03:48:15;;;;;;;;;;;5.60;82.70;;;;;;5026143;28;19920;-78
2022/10/12 03:50:40;;;;;;;;;;;5.50;82.90;;;;;;5022326;28;19984;-78
2022/10/12 03:53:06;;;;;;;;;;;5.50;83.50;;;;;;5024202;28;19989;-78
2022/10/12 03:55:32;;;;;;;;;;;5.50;82.90;;;;;;5043001;28;19921;-79
2022/10/12 03:57:57;;;;;;;;;;;5.60;82.70;;;;;;5023599;28;19916;-79
2022/10/12 04:00:23;;;;;;;;;;;5.40;82.80;;;;;;5019286;28;19917;-78
2022/10/12 04:02:48;;;;;;;;;;;5.50;83.00;;;;;;5016929;28;20035;-78
2022/10/12 04:05:14;;;;;;;;;;;5.60;82.90;;;;;;5028457;28;20408;-78
2022/10/12 04:07:39;;;;;;;;;;;5.60;82.50;;;;;;5015039;28;19976;-78
2022/10/12 04:10:05;;;;;;;;;;;5.50;82.50;;;;;;5012980;28;19928;-78
2022/10/12 04:12:30;;;;;;;;;;;5.40;82.60;;;;;;5015300;28;19917;-78
2022/10/12 04:14:56;;;;;;;;;;;5.40;83.00;;;;;;5022371;28;19917;-79
2022/10/12 04:17:21;;;;;;;;;;;5.40;83.00;;;;;;5032405;28;19913;-78
2022/10/12 04:19:47;;;;;;;;;;;5.50;82.90;;;;;;5025376;28;19913;-78
2022/10/12 04:22:12;;;;;;;;;;;5.50;83.00;;;;;;5023655;28;19913;-78
2022/10/12 04:24:38;;;;;;;;;;;5.60;83.00;;;;;;5028570;28;19949;-78
2022/10/12 04:27:03;;;;;;;;;;;5.60;83.10;;;;;;5027545;28;19971;-78
2022/10/12 04:29:29;;;;;;;;;;;5.60;83.10;;;;;;5025424;28;20389;-78
2022/10/12 04:31:54;;;;;;;;;;;5.60;82.80;;;;;;5028436;28;19917;-79
2022/10/12 04:34:20;;;;;;;;;;;5.60;82.60;;;;;;5026722;28;19914;-80
2022/10/12 04:36:45;;;;;;;;;;;5.60;82.60;;;;;;5025108;28;19921;-78
2022/10/12 04:39:11;;;;;;;;;;;5.50;83.00;;;;;;5025680;28;19914;-79
2022/10/12 04:41:38;;;;;;;;;;;5.50;83.10;;;;;;5021241;28;19963;-79
2022/10/12 04:44:04;;;;;;;;;;;5.50;83.30;;;;;;5009119;28;19914;-78
2022/10/12 04:46:29;;;;;;;;;;;5.50;83.50;;;;;;5021226;28;19913;-78
2022/10/12 04:48:55;;;;;;;;;;;5.50;83.30;;;;;;5020436;28;19914;-78
2022/10/12 04:51:20;;;;;;;;;;;5.50;83.50;;;;;;5031380;28;19918;-78
2022/10/12 04:53:45;;;;;;;;;;;5.60;83.10;;;;;;5024221;28;20408;-77
2022/10/12 04:56:11;;;;;;;;;;;5.60;83.40;;;;;;5016505;28;20004;-78
2022/10/12 04:58:36;;;;;;;;;;;5.60;82.90;;;;;;5019313;28;20293;-79
2022/10/12 05:01:02;;;;;;;;;;;5.60;83.00;;;;;;5020355;28;19917;-79
2022/10/12 05:03:27;;;;;;;;;;;5.70;82.60;;;;;;5028012;28;19914;-79
2022/10/12 05:05:53;;;;;;;;;;;5.60;82.90;;;;;;5025350;28;19917;-79
2022/10/12 05:08:18;;;;;;;;;;;5.60;83.40;;;;;;5030466;28;20270;-79
2022/10/12 05:10:45;;;;;;;;;;;5.60;83.50;;;;;;5021028;28;19921;-78
2022/10/12 05:13:11;;;;;;;;;;;5.60;83.40;;;;;;5024590;28;19917;-78
2022/10/12 05:15:37;;;;;;;;;;;5.60;83.70;;;;;;5014101;28;20270;-77
2022/10/12 05:18:02;;;;;;;;;;;5.60;83.70;;;;;;5006069;28;19917;-79
2022/10/12 05:20:28;;;;;;;;;;;5.60;83.50;;;;;;5012856;28;20430;-78
2022/10/12 05:22:55;;;;;;;;;;;5.60;83.70;;;;;;5013532;28;20746;-77
2022/10/12 05:25:20;;;;;;;;;;;5.60;83.70;;;;;;5012034;28;19914;-77
2022/10/12 05:27:46;;;;;;;;;;;5.70;83.20;;;;;;5005535;28;20012;-77
2022/10/12 05:30:11;;;;;;;;;;;5.80;83.40;;;;;;5010329;28;19914;-77
2022/10/12 05:32:37;;;;;;;;;;;5.70;83.60;;;;;;5011143;28;19924;-76
2022/10/12 05:35:02;;;;;;;;;;;5.70;83.70;;;;;;5012571;28;19919;-78
2022/10/12 05:37:28;;;;;;;;;;;5.70;83.70;;;;;;5025925;28;19999;-77
2022/10/12 05:39:53;;;;;;;;;;;5.80;83.60;;;;;;5010283;28;19960;-77
2022/10/12 05:42:19;;;;;;;;;;;5.70;83.50;;;;;;5013377;28;19917;-76
2022/10/12 05:44:47;;;;;;;;;;;5.70;83.80;;;;;;5010260;28;19949;-77
2022/10/12 05:47:13;;;;;;;;;;;5.70;83.70;;;;;;5008363;28;19917;-77
2022/10/12 05:49:38;;;;;;;;;;;5.70;83.70;;;;;;5004734;28;20040;-76
2022/10/12 05:52:03;;;;;;;;;;;5.80;83.90;;;;;;5006022;28;20725;-77
2022/10/12 05:54:29;;;;;;;;;;;5.90;83.70;;;;;;5007439;28;19921;-77
2022/10/12 05:56:54;;;;;;;;;;;5.90;84.10;;;;;;5005021;28;20004;-76
2022/10/12 05:59:20;;;;;;;;;;;5.80;84.40;;;;;;5006106;28;19921;-77
2022/10/12 06:01:45;;;;;;;;;;;5.80;84.30;;;;;;5008650;28;20456;-77
2022/10/12 06:04:11;;;;;;;;;;;5.70;84.40;;;;;;5006106;28;19917;-77
2022/10/12 06:06:37;;;;;;;;;;;5.70;84.60;;;;;;5009381;28;19910;-77
2022/10/12 06:09:03;;;;;;;;;;;5.60;84.50;;;;;;5009247;28;19917;-77
2022/10/12 06:11:28;;;;;;;;;;;5.70;84.80;;;;;;5009746;28;20051;-77
2022/10/12 06:13:54;;;;;;;;;;;5.80;84.50;;;;;;5009009;28;19914;-78
2022/10/12 06:16:19;;;;;;;;;;;5.90;84.20;;;;;;5011852;28;20645;-78
2022/10/12 06:18:45;;;;;;;;;;;6.00;83.50;;;;;;5014843;28;20334;-79
2022/10/12 06:21:10;;;;;;;;;;;6.00;83.50;;;;;;5022365;28;19918;-79
2022/10/12 06:23:36;;;;;;;;;;;6.10;83.60;;;;;;5016854;28;19945;-79
2022/10/12 06:26:01;;;;;;;;;;;6.00;83.80;;;;;;5046831;22;19952;-86
2022/10/12 06:28:27;;;;;;;;;;;6.00;84.10;;;;;;5003761;28;20295;-87
2022/10/12 06:30:53;;;;;;;;;;;6.00;84.30;;;;;;5014571;28;20407;-86
2022/10/12 06:33:19;;;;;;;;;;;6.00;83.80;;;;;;5030213;28;19917;-86
2022/10/12 06:35:44;;;;;;;;;;;6.00;83.90;;;;;;5022933;28;19909;-86
2022/10/12 06:38:10;;;;;;;;;;;6.00;83.80;;;;;;5033873;28;19913;-87
2022/10/12 06:40:35;;;;;;;;;;;5.80;84.00;;;;;;5015618;28;20346;-86
2022/10/12 06:43:01;;;;;;;;;;;5.70;84.60;;;;;;5028720;23;19925;-80
2022/10/12 06:45:30;;;;;;;;;;;5.70;84.70;;;;;;5035482;28;19917;-80
2022/10/12 06:47:56;;;;;;;;;;;5.80;84.80;;;;;;5033802;28;20373;-82
2022/10/12 06:50:21;;;;;;;;;;;5.90;84.50;;;;;;5031803;28;19913;-81
2022/10/12 06:52:47;;;;;;;;;;;5.90;84.30;;;;;;5034859;28;19920;-82
2022/10/12 06:55:12;;;;;;;;;;;5.90;84.60;;;;;;5032248;28;19921;-82
2022/10/12 06:57:38;;;;;;;;;;;5.90;84.70;;;;;;5033500;28;19975;-82
2022/10/12 07:00:05;;;;;;;;;;;5.90;85.10;;;;;;5039165;28;19923;-82
2022/10/12 07:02:31;;;;;;;;;;;6.10;85.30;;;;;;5048929;28;19917;-82
2022/10/12 07:04:56;;;;;;;;;;;6.10;84.90;;;;;;5034832;28;19977;-82
2022/10/12 07:07:22;;;;;;;;;;;6.20;84.70;;;;;;5034200;28;19916;-82
2022/10/12 07:09:47;;;;;;;;;;;6.10;85.00;;;;;;5034767;28;19920;-82
2022/10/12 07:12:13;;;;;;;;;;;6.10;85.50;;;;;;5036043;28;20351;-81
2022/10/12 07:14:38;;;;;;;;;;;6.10;86.10;;;;;;5048644;28;19913;-82
2022/10/12 07:17:04;;;;;;;;;;;6.20;86.50;;;;;;5044349;28;19916;-81
2022/10/12 07:19:29;;;;;;;;;;;6.20;86.90;;;;;;5035115;28;19917;-81
2022/10/12 07:21:55;;;;;;;;;;;6.30;87.20;;;;;;5035770;28;19955;-81
2022/10/12 07:24:20;;;;;;;;;;;6.30;87.30;;;;;;5035673;28;20307;-81
2022/10/12 07:26:46;;;;;;;;;;;6.50;87.50;;;;;;5035087;28;19913;-82
2022/10/12 07:29:11;;;;;;;;;;;6.60;87.50;;;;;;5034097;28;20218;-82
2022/10/12 07:31:37;;;;;;;;;;;6.70;87.50;;;;;;5035532;28;19917;-82
2022/10/12 07:34:02;;;;;;;;;;;6.80;87.60;;;;;;5035091;28;19913;-82
2022/10/12 07:36:28;;;;;;;;;;;6.90;87.80;;;;;;5036087;28;19917;-82
2022/10/12 07:38:53;;;;;;;;;;;7.00;87.70;;;;;;5033543;28;19917;-82
2022/10/12 07:41:19;;;;;;;;;;;7.20;87.80;;;;;;5034559;28;19963;-82
2022/10/12 07:43:44;;;;;;;;;;;7.30;87.70;;;;;;5034091;28;19931;-82
2022/10/12 07:46:10;;;;;;;;;;;7.40;87.60;;;;;;5034987;28;19917;-82
2022/10/12 07:48:36;;;;;;;;;;;7.40;87.60;;;;;;5033111;28;19925;-83
2022/10/12 07:51:06;;;;;;;;;;;7.40;87.60;;;;;;5038038;28;19917;-82
2022/10/12 07:53:32;;;;;;;;;;;7.40;87.60;;;;;;5033669;28;19917;-82
2022/10/12 07:55:58;;;;;;;;;;;7.50;87.60;;;;;;5049648;28;20280;-82
2022/10/12 07:58:24;;;;;;;;;;;7.60;87.60;;;;;;5044409;28;19913;-82
2022/10/12 08:00:49;;;;;;;;;;;7.60;87.60;;;;;;5033718;28;19967;-82
2022/10/12 08:03:15;;;;;;;;;;;7.80;87.60;;;;;;5034417;28;19910;-83
2022/10/12 08:05:41;;;;;;;;;;;8.00;86.70;;;;;;5033185;28;19913;-82
2022/10/12 08:08:07;;;;;;;;;;;8.20;86.50;;;;;;5033710;28;19913;-81
2022/10/12 08:10:33;;;;;;;;;;;8.20;86.10;;;;;;5033225;28;20018;-82
2022/10/12 08:12:59;;;;;;;;;;;8.30;85.90;;;;;;5030508;28;19968;-82
2022/10/12 08:15:24;;;;;;;;;;;8.40;85.60;;;;;;5034898;28;19913;-82
2022/10/12 08:17:50;;;;;;;;;;;8.50;85.30;;;;;;5032374;28;19968;-82
2022/10/12 08:20:15;;;;;;;;;;;8.70;85.10;;;;;;5032943;28;19940;-82
2022/10/12 08:22:40;;;;;;;;;;;8.90;84.50;;;;;;5033277;28;20264;-82
2022/10/12 08:25:06;;;;;;;;;;;9.00;83.90;;;;;;5034729;28;20001;-82
2022/10/12 08:27:32;;;;;;;;;;;9.10;83.90;;;;;;5032950;28;19913;-83
2022/10/12 08:29:57;;;;;;;;;;;9.30;83.10;;;;;;5047737;28;19916;-83
2022/10/12 08:32:24;;;;;;;;;;;9.30;83.00;;;;;;5034427;28;19921;-82
2022/10/12 08:34:49;;;;;;;;;;;9.30;83.40;;;;;;5033398;28;19924;-81
2022/10/12 08:37:15;;;;;;;;;;;9.40;83.50;;;;;;5032721;28;19917;-81
2022/10/12 08:39:40;;;;;;;;;;;9.50;83.30;;;;;;5036706;28;19913;-80
2022/10/12 08:42:09;;;;;;;;;;;9.50;83.20;;;;;;5034842;28;20400;-81
2022/10/12 08:44:57;;;;;;;;;;;9.60;82.90;;;;;;5036826;28;19952;-80
2022/10/12 08:47:44;;;;;;;;;;;9.60;82.70;;;;;;5036276;28;19917;-80
2022/10/12 08:50:16;;;;;;;;;;;9.60;82.00;;;;;;5036320;28;20284;-81
2022/10/12 08:52:50;;;;;;;;;;;9.70;81.90;;;;;;5036079;28;19923;-80
2022/10/12 08:55:36;;;;;;;;;;;9.80;81.40;;;;;;5036130;28;19909;-81
2022/10/12 08:58:02;;;;;;;;;;;10.00;80.80;;;;;;5026926;28;19925;-81
2022/10/12 09:00:29;;;;;;;;;;;9.90;80.80;;;;;;5037037;28;20345;-81
2022/10/12 09:03:04;;;;;;;;;;;9.90;81.10;;;;;;5036516;28;19943;-81
2022/10/12 09:05:36;;;;;;;;;;;10.00;80.70;;;;;;5037439;28;19909;-81
2022/10/12 09:08:05;;;;;;;;;;;10.00;81.00;;;;;;5034740;28;20008;-81
2022/10/12 09:10:37;;;;;;;;;;;10.10;80.60;;;;;;5031903;28;19916;-80
2022/10/12 09:13:05;;;;;;;;;;;10.20;80.40;;;;;;5033581;28;19913;-81
2022/10/12 09:15:36;;;;;;;;;;;10.30;78.80;;;;;;5032415;28;19963;-81
2022/10/12 09:18:04;;;;;;;;;;;10.30;77.80;;;;;;5033091;28;19909;-80
2022/10/12 09:20:34;;;;;;;;;;;10.30;77.70;;;;;;5032730;28;19913;-81
2022/10/12 09:23:23;;;;;;;;;;;10.30;76.70;;;;;;5066732;28;20007;-81
2022/10/12 09:25:49;;;;;;;;;;;10.30;76.20;;;;;;5056893;28;19980;-81
2022/10/12 09:28:18;;;;;;;;;;;10.40;76.80;;;;;;5049738;28;19924;-80
2022/10/12 09:30:45;;;;;;;;;;;10.50;76.70;;;;;;5046957;28;19924;-81
2022/10/12 09:33:21;;;;;;;;;;;10.60;76.70;;;;;;5040062;28;19920;-80
2022/10/12 09:35:49;;;;;;;;;;;10.70;76.70;;;;;;5036041;28;20008;-80
2022/10/12 09:38:14;;;;;;;;;;;10.90;76.00;;;;;;5034696;28;19948;-81
2022/10/12 09:40:40;;;;;;;;;;;11.00;76.00;;;;;;5050099;28;19919;-80
2022/10/12 09:43:06;;;;;;;;;;;11.30;74.70;;;;;;5041001;28;19917;-80
2022/10/12 09:45:32;;;;;;;;;;;11.30;74.60;;;;;;5042001;28;19913;-80
2022/10/12 09:48:13;;;;;;;;;;;11.30;75.40;;;;;;5053049;28;20293;-80
2022/10/12 09:50:39;;;;;;;;;;;11.40;75.10;;;;;;5040091;28;19939;-79
2022/10/12 09:53:11;;;;;;;;;;;11.30;74.50;;;;;;5050156;28;19913;-80
2022/10/12 09:55:37;;;;;;;;;;;11.30;75.00;;;;;;5029525;28;20502;-80
2022/10/12 09:58:03;;;;;;;;;;;11.60;73.90;;;;;;5038419;28;19941;-80
2022/10/12 10:00:33;;;;;;;;;;;11.50;73.90;;;;;;5059891;28;19956;-80
2022/10/12 10:02:59;;;;;;;;;;;11.50;74.30;;;;;;5054207;28;19976;-80
2022/10/12 10:05:32;;;;;;;;;;;11.40;74.40;;;;;;5037997;28;19913;-81
2022/10/12 10:08:13;;;;;;;;;;;11.50;74.10;;;;;;5039812;28;19920;-81
2022/10/12 10:10:49;;;;;;;;;;;11.50;74.90;;;;;;5038576;28;19917;-80
2022/10/12 10:13:15;;;;;;;;;;;11.60;75.30;;;;;;5040383;28;20380;-81
2022/10/12 10:15:42;;;;;;;;;;;11.50;75.80;;;;;;5044441;28;19928;-80
2022/10/12 10:18:19;;;;;;;;;;;11.60;75.90;;;;;;5042052;28;19913;-80
2022/10/12 10:20:54;;;;;;;;;;;11.60;75.80;;;;;;5028352;28;20361;-81
2022/10/12 10:23:23;;;;;;;;;;;11.60;75.10;;;;;;5034329;28;19947;-82
2022/10/12 10:25:54;;;;;;;;;;;11.60;74.10;;;;;;5036905;28;19913;-82
2022/10/12 10:28:26;;;;;;;;;;;11.80;74.40;;;;;;5045588;28;20418;-82
2022/10/12 10:30:57;;;;;;;;;;;11.80;74.30;;;;;;5049150;28;20263;-83
2022/10/12 10:33:22;;;;;;;;;;;12.10;73.20;;;;;;5032289;28;20571;-82
2022/10/12 10:36:11;;;;;;;;;;;12.10;72.00;;;;;;5046701;28;19920;-84
2022/10/12 10:38:49;;;;;;;;;;;12.30;71.50;;;;;;5023265;28;19920;-84
2022/10/12 10:41:16;;;;;;;;;;;12.50;70.50;;;;;;5032093;28;19913;-83
2022/10/12 10:43:45;;;;;;;;;;;12.50;71.00;;;;;;5036617;28;20362;-83
2022/10/12 10:46:11;;;;;;;;;;;12.40;69.80;;;;;;5032777;28;19913;-82
2022/10/12 10:48:49;;;;;;;;;;;12.50;68.60;;;;;;5036339;28;19913;-82
2022/10/12 10:51:15;;;;;;;;;;;12.40;69.80;;;;;;5036827;28;20280;-82
2022/10/12 10:53:42;;;;;;;;;;;12.60;68.30;;;;;;5033740;28;19913;-83
2022/10/12 10:56:16;;;;;;;;;;;12.80;68.40;;;;;;5036726;28;19967;-82
2022/10/12 10:58:42;;;;;;;;;;;12.60;69.40;;;;;;5035993;28;19916;-82
2022/10/12 11:01:17;;;;;;;;;;;12.50;70.10;;;;;;5034925;28;19913;-84
2022/10/12 11:03:43;;;;;;;;;;;12.50;70.30;;;;;;5033771;28;19928;-82
2022/10/12 11:06:17;;;;;;;;;;;12.50;70.60;;;;;;5042440;28;20276;-82
2022/10/12 11:08:43;;;;;;;;;;;12.60;70.20;;;;;;5030581;28;19946;-81
2022/10/12 11:11:13;;;;;;;;;;;12.50;69.80;;;;;;5032942;28;19928;-82
2022/10/12 11:13:42;;;;;;;;;;;12.60;69.90;;;;;;5034865;28;19963;-81
2022/10/12 11:16:26;;;;;;;;;;;12.60;69.70;;;;;;5032522;28;19941;-82
2022/10/12 11:18:56;;;;;;;;;;;12.80;69.10;;;;;;5026338;28;19940;-82
2022/10/12 11:21:21;;;;;;;;;;;12.90;69.40;;;;;;5034921;28;19910;-82
2022/10/12 11:23:49;;;;;;;;;;;13.00;69.20;;;;;;5035860;28;19913;-82
2022/10/12 11:26:20;;;;;;;;;;;13.00;68.70;;;;;;5038090;28;19921;-82
2022/10/12 11:28:46;;;;;;;;;;;13.00;69.00;;;;;;5037361;28;20393;-83
2022/10/12 11:31:18;;;;;;;;;;;13.10;69.70;;;;;;5036173;28;19917;-83
2022/10/12 11:33:44;;;;;;;;;;;13.30;69.50;;;;;;5050728;28;19923;-82
2022/10/12 11:36:12;;;;;;;;;;;13.30;66.10;;;;;;5041406;28;19928;-83
2022/10/12 11:38:45;;;;;;;;;;;13.40;66.40;;;;;;5042744;28;19913;-83
2022/10/12 11:41:14;;;;;;;;;;;13.70;67.00;;;;;;5028023;28;20337;-82
2022/10/12 11:43:55;;;;;;;;;;;13.80;65.70;;;;;;5038939;28;20403;-83
2022/10/12 11:46:22;;;;;;;;;;;13.80;65.40;;;;;;5048595;28;19991;-82
2022/10/12 11:48:53;;;;;;;;;;;13.80;65.40;;;;;;5034182;28;19921;-82
2022/10/12 11:51:19;;;;;;;;;;;13.80;66.50;;;;;;5039668;28;20007;-83
2022/10/12 11:53:44;;;;;;;;;;;13.80;66.90;;;;;;5039785;28;19967;-83
2022/10/12 11:56:13;;;;;;;;;;;13.90;64.70;;;;;;5038449;28;19916;-83
2022/10/12 11:58:40;;;;;;;;;;;13.90;65.00;;;;;;5035943;28;19913;-83
2022/10/12 12:01:18;;;;;;;;;;;14.00;62.70;;;;;;5038720;28;19913;-83
2022/10/12 12:03:43;;;;;;;;;;;14.10;62.40;;;;;;5051684;28;20347;-83
2022/10/12 12:06:27;;;;;;;;;;;14.10;62.10;;;;;;5059768;28;19908;-82
2022/10/12 12:08:52;;;;;;;;;;;14.30;62.30;;;;;;5046632;28;19963;-83
2022/10/12 12:11:20;;;;;;;;;;;14.20;61.60;;;;;;5036725;28;19917;-83
2022/10/12 12:13:46;;;;;;;;;;;14.20;62.70;;;;;;5036888;28;20003;-81
2022/10/12 12:16:11;;;;;;;;;;;14.20;62.50;;;;;;5034627;28;20420;-82
2022/10/12 12:18:55;;;;;;;;;;;14.20;62.70;;;;;;5042220;28;19936;-82
2022/10/12 12:21:21;;;;;;;;;;;14.20;62.30;;;;;;5034801;28;19920;-82
2022/10/12 12:23:51;;;;;;;;;;;14.20;63.80;;;;;;5045842;28;19949;-81
2022/10/12 12:26:17;;;;;;;;;;;14.20;64.00;;;;;;5033332;28;20004;-81
2022/10/12 12:28:47;;;;;;;;;;;14.30;64.20;;;;;;5033054;28;20008;-82
2022/10/12 12:31:21;;;;;;;;;;;14.50;63.90;;;;;;5033775;28;19924;-82
2022/10/12 12:33:48;;;;;;;;;;;14.50;63.60;;;;;;5039052;28;19909;-82
2022/10/12 12:36:33;;;;;;;;;;;14.60;63.40;;;;;;5035187;28;19913;-81
2022/10/12 12:39:00;;;;;;;;;;;14.70;63.70;;;;;;5046704;28;19909;-82
2022/10/12 12:41:46;;;;;;;;;;;14.80;63.60;;;;;;5038096;28;19917;-81
2022/10/12 12:44:35;;;;;;;;;;;14.90;63.80;;;;;;5039078;28;20292;-81
2022/10/12 12:47:00;;;;;;;;;;;15.00;63.90;;;;;;5043913;28;19913;-81
2022/10/12 12:49:40;;;;;;;;;;;15.00;64.60;;;;;;5057641;28;19924;-81
2022/10/12 12:52:15;;;;;;;;;;;15.20;63.10;;;;;;5038267;28;19917;-81
2022/10/12 12:54:59;;;;;;;;;;;15.40;62.40;;;;;;5032122;28;19919;-81
2022/10/12 12:57:27;;;;;;;;;;;15.50;62.00;;;;;;5027646;28;19936;-81
2022/10/12 13:00:24;;;;;;;;;;;15.60;61.40;;;;;;5033552;28;20042;-81
2022/10/12 13:03:06;;;;;;;;;;;15.50;61.90;;;;;;5011645;28;19951;-81
2022/10/12 13:05:32;;;;;;;;;;;15.50;61.60;;;;;;5028519;28;20648;-81
2022/10/12 13:07:57;;;;;;;;;;;15.60;60.70;;;;;;5031503;28;19909;-82
2022/10/12 13:10:42;;;;;;;;;;;15.50;60.90;;;;;;5031739;28;19913;-82
2022/10/12 13:13:26;;;;;;;;;;;15.50;61.40;;;;;;5033446;28;20392;-82
2022/10/12 13:16:11;;;;;;;;;;;15.60;60.80;;;;;;5016572;28;19918;-82
2022/10/12 13:18:46;;;;;;;;;;;15.60;60.70;;;;;;5036407;28;20426;-83
2022/10/12 13:21:15;;;;;;;;;;;15.60;60.70;;;;;;5031283;28;19914;-81
2022/10/12 13:23:43;;;;;;;;;;;15.50;61.30;;;;;;5032807;28;20703;-81
2022/10/12 13:26:09;;;;;;;;;;;15.40;61.90;;;;;;5032031;28;19913;-82
2022/10/12 13:28:42;;;;;;;;;;;15.30;62.50;;;;;;5029638;28;19978;-82
2022/10/12 13:31:13;;;;;;;;;;;15.30;62.70;;;;;;5028823;28;19925;-81
2022/10/12 13:33:43;;;;;;;;;;;15.10;62.80;;;;;;5033883;28;19913;-82
2022/10/12 13:36:20;;;;;;;;;;;15.10;63.30;;;;;;5033721;28;19920;-82
2022/10/12 13:38:46;;;;;;;;;;;15.10;63.10;;;;;;5038929;28;19917;-83
2022/10/12 13:41:15;;;;;;;;;;;15.00;64.50;;;;;;5031031;28;19920;-83
2022/10/12 13:43:50;;;;;;;;;;;15.00;64.10;;;;;;5035376;28;19917;-82
2022/10/12 13:46:36;;;;;;;;;;;15.10;63.70;;;;;;5030477;28;19957;-82
2022/10/12 13:49:03;;;;;;;;;;;15.10;63.50;;;;;;5034960;28;19920;-82
2022/10/12 13:51:29;;;;;;;;;;;15.10;63.40;;;;;;5053730;28;19928;-79
2022/10/12 13:53:55;;;;;;;;;;;15.20;64.00;;;;;;5035334;28;19940;-80
2022/10/12 13:56:26;;;;;;;;;;;15.10;64.00;;;;;;5032315;28;20423;-79
2022/10/12 13:58:54;;;;;;;;;;;15.10;64.20;;;;;;5030903;28;19964;-79
2022/10/12 14:01:20;;;;;;;;;;;15.30;64.10;;;;;;5034927;28;19913;-79
2022/10/12 14:03:45;;;;;;;;;;;15.40;64.50;;;;;;5032847;28;20000;-81
2022/10/12 14:06:23;;;;;;;;;;;15.30;64.40;;;;;;5031394;28;19924;-80
2022/10/12 14:08:48;;;;;;;;;;;15.40;63.80;;;;;;5032473;28;19956;-80
2022/10/12 14:11:16;;;;;;;;;;;15.60;63.30;;;;;;5030314;28;19921;-79
2022/10/12 14:13:44;;;;;;;;;;;15.60;62.90;;;;;;5031224;28;20381;-78
2022/10/12 14:16:11;;;;;;;;;;;15.60;62.90;;;;;;5055356;28;19917;-78
2022/10/12 14:18:40;;;;;;;;;;;15.60;63.40;;;;;;5045042;28;20472;-78
2022/10/12 14:21:09;;;;;;;;;;;15.50;64.00;;;;;;5031108;28;19939;-79
2022/10/12 14:23:40;;;;;;;;;;;15.50;63.20;;;;;;5033146;28;20289;-78
2022/10/12 14:26:27;;;;;;;;;;;15.60;63.40;;;;;;5036972;28;19996;-79
2022/10/12 14:28:55;;;;;;;;;;;15.60;63.30;;;;;;5033388;28;19917;-79
2022/10/12 14:31:40;;;;;;;;;;;15.60;63.30;;;;;;5026455;28;19965;-80
2022/10/12 14:34:22;;;;;;;;;;;15.50;63.50;;;;;;5022019;28;20292;-84